createdAt,value
2018-09-17T00:01:24.799Z,3.60
2018-09-17T00:03:52.112Z,3.40
2018-09-17T00:06:19.407Z,3.20
2018-09-17T00:08:46.775Z,3.85
2018-09-17T00:11:14.181Z,3.30
2018-09-17T00:13:41.487Z,3.35
2018-09-17T00:16:08.799Z,3.62
2018-09-17T00:18:40.579Z,3.67
2018-09-17T00:21:08.070Z,3.47
2018-09-17T00:23:35.400Z,3.30
2018-09-17T00:26:03.439Z,3.47
2018-09-17T00:28:30.807Z,3.10
2018-09-17T00:30:58.324Z,3.70
2018-09-17T00:33:25.664Z,3.40
2018-09-17T00:35:52.952Z,4.05
2018-09-17T00:38:20.249Z,3.27
2018-09-17T00:40:47.551Z,3.37
2018-09-17T00:43:14.962Z,3.65
2018-09-17T00:45:46.851Z,3.50
2018-09-17T00:48:14.197Z,3.83
2018-09-17T00:50:41.472Z,3.65
2018-09-17T00:53:08.787Z,3.70
2018-09-17T00:55:36.071Z,3.62
2018-09-17T00:58:03.378Z,3.70
2018-09-17T01:00:30.696Z,3.55
2018-09-17T01:02:58.049Z,4.53
2018-09-17T01:05:25.378Z,4.12
2018-09-17T01:07:52.792Z,4.08
2018-09-17T01:10:20.294Z,3.62
2018-09-17T01:12:47.598Z,3.77
2018-09-17T01:15:14.954Z,3.72
2018-09-17T01:17:42.324Z,4.03
2018-09-17T01:20:09.749Z,3.72
2018-09-17T01:22:37.127Z,3.60
2018-09-17T01:25:04.739Z,3.45
2018-09-17T01:27:32.058Z,3.60
2018-09-17T01:29:59.450Z,3.95
2018-09-17T01:32:27.024Z,3.58
2018-09-17T01:34:54.977Z,4.12
2018-09-17T01:37:22.289Z,3.80
2018-09-17T01:39:49.612Z,3.62
2018-09-17T01:42:16.946Z,4.08
2018-09-17T01:44:44.273Z,3.45
2018-09-17T01:47:11.639Z,3.60
2018-09-17T01:49:38.977Z,3.20
2018-09-17T01:52:06.698Z,3.60
2018-09-17T01:54:34.043Z,3.17
2018-09-17T01:57:01.350Z,4.20
2018-09-17T01:59:28.730Z,3.58
2018-09-17T02:01:56.076Z,4.28
2018-09-17T02:04:23.579Z,3.45
2018-09-17T02:06:50.932Z,3.77
2018-09-17T02:09:18.693Z,4.00
2018-09-17T02:11:46.006Z,3.83
2018-09-17T02:14:14.329Z,3.40
2018-09-17T02:16:41.641Z,4.00
2018-09-17T02:19:08.954Z,3.92
2018-09-17T02:21:36.286Z,4.30
2018-09-17T02:24:04.400Z,3.92
2018-09-17T02:26:31.768Z,4.22
2018-09-17T02:28:59.069Z,4.30
2018-09-17T02:31:26.481Z,3.45
2018-09-17T02:33:53.794Z,3.75
2018-09-17T02:36:21.193Z,3.95
2018-09-17T02:38:48.533Z,3.75
2018-09-17T02:41:16.539Z,3.75
2018-09-17T02:43:43.934Z,4.10
2018-09-17T02:46:16.108Z,3.85
2018-09-17T02:48:43.432Z,4.37
2018-09-17T02:51:11.138Z,4.35
2018-09-17T02:53:38.449Z,4.83
2018-09-17T02:56:05.950Z,4.35
2018-09-17T02:58:33.358Z,3.30
2018-09-17T03:01:00.635Z,4.00
2018-09-17T03:03:27.930Z,4.00
2018-09-17T03:05:55.991Z,3.95
2018-09-17T03:08:23.391Z,4.20
2018-09-17T03:10:50.697Z,4.25
2018-09-17T03:13:18.001Z,4.50
2018-09-17T03:15:46.678Z,4.83
2018-09-17T03:18:14.259Z,3.65
2018-09-17T03:20:41.587Z,4.53
2018-09-17T03:23:08.955Z,3.90
2018-09-17T03:25:36.267Z,4.85
2018-09-17T03:28:03.574Z,4.30
2018-09-17T03:30:30.890Z,4.75
2018-09-17T03:32:58.233Z,5.10
2018-09-17T03:35:25.534Z,5.08
2018-09-17T03:37:52.905Z,4.80
2018-09-17T03:40:20.187Z,4.55
2018-09-17T03:42:47.490Z,6.28
2018-09-17T03:45:15.102Z,4.83
2018-09-17T03:47:42.504Z,4.72
2018-09-17T03:50:09.873Z,4.78
2018-09-17T03:52:37.175Z,5.47
2018-09-17T03:55:04.529Z,5.42
2018-09-17T03:57:31.868Z,4.67
2018-09-17T03:59:59.186Z,5.53
2018-09-17T04:02:26.581Z,5.20
2018-09-17T04:04:53.950Z,4.00
2018-09-17T04:07:21.763Z,5.12
2018-09-17T04:09:49.074Z,5.72
2018-09-17T04:12:16.598Z,5.87
2018-09-17T04:14:44.185Z,4.67
2018-09-17T04:17:11.594Z,5.30
2018-09-17T04:19:39.007Z,5.72
2018-09-17T04:22:06.608Z,6.22
2018-09-17T04:24:33.907Z,4.40
2018-09-17T04:27:01.522Z,5.35
2018-09-17T04:29:28.842Z,5.08
2018-09-17T04:31:56.153Z,4.90
2018-09-17T04:34:23.529Z,5.53
2018-09-17T04:36:50.922Z,3.77
2018-09-17T04:39:20.296Z,4.67
2018-09-17T04:41:47.967Z,4.35
2018-09-17T04:44:15.270Z,4.92
2018-09-17T04:46:42.680Z,4.92
2018-09-17T04:49:10.018Z,5.55
2018-09-17T04:51:37.738Z,4.90
2018-09-17T04:54:05.745Z,6.00
2018-09-17T04:56:33.023Z,5.30
2018-09-17T04:59:01.017Z,6.45
2018-09-17T05:01:28.347Z,5.47
2018-09-17T05:03:55.663Z,5.97
2018-09-17T05:06:23.285Z,6.25
2018-09-17T05:08:50.579Z,6.30
2018-09-17T05:11:18.022Z,6.60
2018-09-17T05:13:45.342Z,5.85
2018-09-17T05:16:12.599Z,6.53
2018-09-17T05:18:40.028Z,6.50
2018-09-17T05:21:07.410Z,6.33
2018-09-17T05:23:34.723Z,6.67
2018-09-17T05:26:02.143Z,6.33
2018-09-17T05:28:29.438Z,6.50
2018-09-17T05:30:56.738Z,6.30
2018-09-17T05:33:24.247Z,6.05
2018-09-17T05:35:51.541Z,6.35
2018-09-17T05:38:18.945Z,7.10
2018-09-17T05:40:46.250Z,7.25
2018-09-17T05:43:13.610Z,7.25
2018-09-17T05:45:40.997Z,6.10
2018-09-17T05:48:08.282Z,6.45
2018-09-17T05:50:35.574Z,6.62
2018-09-17T05:53:02.894Z,7.85
2018-09-17T05:55:30.186Z,7.25
2018-09-17T05:57:57.490Z,7.65
2018-09-17T06:00:25.015Z,7.22
2018-09-17T06:02:52.314Z,7.85
2018-09-17T06:05:19.711Z,8.18
2018-09-17T06:07:47.030Z,8.78
2018-09-17T06:10:15.450Z,9.65
2018-09-17T06:12:43.924Z,8.18
2018-09-17T06:15:11.218Z,7.92
2018-09-17T06:17:38.520Z,7.62
2018-09-17T06:20:05.873Z,6.45
2018-09-17T06:22:33.190Z,7.47
2018-09-17T06:25:00.490Z,7.20
2018-09-17T06:27:28.127Z,7.83
2018-09-17T06:29:55.401Z,7.60
2018-09-17T06:32:22.657Z,7.35
2018-09-17T06:34:49.932Z,7.40
2018-09-17T06:37:17.209Z,8.43
2018-09-17T06:39:44.519Z,9.38
2018-09-17T06:42:11.778Z,7.45
2018-09-17T06:44:39.151Z,7.65
2018-09-17T06:47:06.458Z,7.90
2018-09-17T06:49:33.765Z,9.43
2018-09-17T06:52:01.051Z,8.45
2018-09-17T06:54:28.355Z,8.28
2018-09-17T06:56:55.616Z,8.90
2018-09-17T06:59:22.906Z,7.85
2018-09-17T07:01:50.173Z,8.93
2018-09-17T07:04:18.078Z,7.83
2018-09-17T07:06:45.391Z,7.65
2018-09-17T07:09:12.904Z,7.97
2018-09-17T07:11:40.205Z,8.55
2018-09-17T07:14:07.565Z,7.60
2018-09-17T07:16:34.910Z,8.30
2018-09-17T07:19:02.239Z,7.37
2018-09-17T07:21:29.930Z,8.00
2018-09-17T07:23:57.196Z,6.85
2018-09-17T07:26:24.548Z,7.20
2018-09-17T07:28:51.846Z,7.03
2018-09-17T07:33:46.478Z,7.53
2018-09-17T07:36:13.806Z,7.10
2018-09-17T07:38:41.114Z,8.07
2018-09-17T07:41:08.401Z,7.60
2018-09-17T07:43:35.887Z,7.93
2018-09-17T07:46:03.226Z,9.30
2018-09-17T07:48:31.126Z,7.90
2018-09-17T07:50:58.436Z,7.67
2018-09-17T07:53:25.773Z,6.92
2018-09-17T07:55:53.089Z,7.30
2018-09-17T07:58:20.363Z,8.70
2018-09-17T08:00:47.890Z,8.53
2018-09-17T08:03:15.160Z,7.37
2018-09-17T08:05:42.483Z,7.33
2018-09-17T08:08:09.758Z,8.07
2018-09-17T08:10:37.465Z,8.00
2018-09-17T08:13:04.906Z,6.83
2018-09-17T08:15:32.296Z,6.40
2018-09-17T08:17:59.601Z,7.20
2018-09-17T08:20:26.863Z,7.13
2018-09-17T08:22:54.247Z,6.20
2018-09-17T08:25:21.555Z,5.40
2018-09-17T08:27:48.818Z,6.47
2018-09-17T08:30:16.730Z,6.33
2018-09-17T08:32:44.033Z,6.07
2018-09-17T08:35:11.393Z,5.50
2018-09-17T08:37:38.946Z,6.17
2018-09-17T08:40:06.664Z,5.93
2018-09-17T08:42:33.972Z,6.53
2018-09-17T08:45:01.266Z,5.90
2018-09-17T08:47:28.573Z,5.43
2018-09-17T08:49:55.886Z,6.40
2018-09-17T08:52:23.186Z,5.83
2018-09-17T08:54:55.781Z,6.40
2018-09-17T08:57:28.481Z,6.40
2018-09-17T09:00:01.157Z,5.63
2018-09-17T09:02:33.925Z,6.20
2018-09-17T09:05:06.716Z,5.90
2018-09-17T09:07:40.289Z,5.83
2018-09-17T09:10:12.863Z,5.53
2018-09-17T09:12:41.425Z,5.60
2018-09-17T09:15:14.130Z,6.00
2018-09-17T09:17:41.664Z,5.20
2018-09-17T09:20:08.942Z,4.90
2018-09-17T09:22:36.305Z,4.80
2018-09-17T09:25:03.654Z,4.70
2018-09-17T09:27:30.931Z,4.90
2018-09-17T09:29:58.287Z,5.27
2018-09-17T09:32:25.583Z,5.40
2018-09-17T09:34:53.238Z,5.07
2018-09-17T09:37:20.562Z,5.50
2018-09-17T09:39:48.165Z,4.77
2018-09-17T09:42:15.465Z,5.10
2018-09-17T09:44:42.889Z,5.23
2018-09-17T09:47:10.178Z,4.17
2018-09-17T09:49:37.631Z,3.13
2018-09-17T09:52:05.013Z,3.17
2018-09-17T09:54:32.706Z,4.30
2018-09-17T09:57:00.052Z,4.07
2018-09-17T09:59:27.372Z,4.53
2018-09-17T10:02:00.013Z,3.93
2018-09-17T10:04:27.294Z,4.23
2018-09-17T10:06:54.602Z,3.47
2018-09-17T10:09:27.214Z,3.50
2018-09-17T10:11:59.825Z,4.00
2018-09-17T10:14:32.404Z,4.23
2018-09-17T10:17:04.950Z,4.30
2018-09-17T10:19:32.722Z,4.30
2018-09-17T10:22:00.061Z,3.73
2018-09-17T10:24:27.334Z,3.13
2018-09-17T10:26:54.620Z,3.07
2018-09-17T10:29:21.921Z,3.43
2018-09-17T10:31:49.249Z,3.17
2018-09-17T10:34:16.622Z,2.90
2018-09-17T10:36:43.925Z,2.93
2018-09-17T10:39:12.889Z,2.87
2018-09-17T10:41:40.370Z,2.63
2018-09-17T10:44:07.882Z,2.70
2018-09-17T10:46:35.916Z,2.57
2018-09-17T10:49:03.309Z,2.87
2018-09-17T10:51:30.632Z,2.80
2018-09-17T10:53:57.959Z,2.50
2018-09-17T10:56:25.231Z,2.90
2018-09-17T10:58:52.527Z,2.67
2018-09-17T11:01:19.793Z,3.17
2018-09-17T11:03:47.630Z,2.90
2018-09-17T11:06:14.959Z,3.10
2018-09-17T11:08:42.270Z,2.90
2018-09-17T11:11:09.576Z,2.70
2018-09-17T11:13:36.910Z,3.80
2018-09-17T11:16:04.219Z,3.00
2018-09-17T11:18:31.485Z,3.10
2018-09-17T11:20:58.782Z,3.17
2018-09-17T11:23:26.090Z,4.33
2018-09-17T11:25:54.203Z,3.93
2018-09-17T11:28:21.509Z,3.90
2018-09-17T11:30:48.809Z,3.20
2018-09-17T11:33:16.246Z,2.87
2018-09-17T11:35:43.559Z,2.80
2018-09-17T11:38:11.098Z,3.20
2018-09-17T11:40:38.386Z,3.20
2018-09-17T11:43:05.696Z,2.77
2018-09-17T11:45:33.005Z,3.70
2018-09-17T11:48:00.319Z,3.60
2018-09-17T11:50:27.623Z,2.77
2018-09-17T11:52:55.204Z,2.50
2018-09-17T11:55:22.483Z,2.97
2018-09-17T11:57:49.990Z,2.70
2018-09-17T12:00:22.605Z,2.53
2018-09-17T12:02:55.309Z,2.63
2018-09-17T12:05:28.087Z,2.70
2018-09-17T12:07:55.474Z,2.60
2018-09-17T12:10:22.784Z,2.60
2018-09-17T12:12:50.082Z,2.70
2018-09-17T12:15:17.452Z,2.40
2018-09-17T12:17:44.803Z,2.20
2018-09-17T12:20:12.082Z,2.17
2018-09-17T12:22:39.354Z,2.40
2018-09-17T12:25:06.702Z,2.23
2018-09-17T12:27:34.002Z,2.57
2018-09-17T12:30:01.316Z,2.57
2018-09-17T12:32:28.622Z,2.27
2018-09-17T12:34:55.915Z,2.30
2018-09-17T12:37:23.243Z,2.30
2018-09-17T12:39:50.541Z,2.50
2018-09-17T12:42:17.870Z,2.30
2018-09-17T12:44:45.165Z,2.43
2018-09-17T12:47:12.453Z,1.83
2018-09-17T12:49:39.703Z,2.50
2018-09-17T12:52:06.995Z,2.10
2018-09-17T12:54:34.304Z,2.33
2018-09-17T12:57:01.576Z,2.40
2018-09-17T12:59:28.867Z,2.40
2018-09-17T13:01:56.258Z,2.70
2018-09-17T13:04:23.519Z,2.67
2018-09-17T13:06:50.808Z,2.80
2018-09-17T13:09:18.106Z,2.60
2018-09-17T13:11:45.382Z,2.60
2018-09-17T13:14:12.686Z,2.60
2018-09-17T13:16:40.500Z,2.03
2018-09-17T13:19:09.122Z,3.27
2018-09-17T13:21:36.416Z,3.30
2018-09-17T13:24:04.183Z,2.70
2018-09-17T13:26:31.535Z,3.27
2018-09-17T13:28:58.838Z,2.60
2018-09-17T13:31:26.241Z,3.87
2018-09-17T13:33:53.498Z,2.70
2018-09-17T13:36:20.776Z,2.63
2018-09-17T13:38:48.053Z,2.40
2018-09-17T13:41:15.350Z,3.50
2018-09-17T13:43:42.625Z,2.80
2018-09-17T13:46:09.913Z,3.10
2018-09-17T13:48:37.225Z,2.23
2018-09-17T13:51:04.869Z,2.87
2018-09-17T13:53:32.283Z,2.63
2018-09-17T13:55:59.490Z,3.13
2018-09-17T13:58:26.777Z,2.93
2018-09-17T14:00:54.690Z,2.47
2018-09-17T14:03:22.013Z,2.57
2018-09-17T14:05:49.322Z,2.60
2018-09-17T14:08:16.604Z,2.10
2018-09-17T14:10:43.929Z,2.60
2018-09-17T14:13:11.239Z,2.60
2018-09-17T14:15:38.644Z,2.70
2018-09-17T14:18:06.146Z,2.60
2018-09-17T14:20:33.453Z,2.97
2018-09-17T14:23:00.767Z,2.73
2018-09-17T14:25:28.081Z,2.27
2018-09-17T14:27:55.379Z,2.73
2018-09-17T14:30:22.672Z,2.90
2018-09-17T14:32:55.418Z,3.00
2018-09-17T14:35:22.704Z,2.80
2018-09-17T14:37:50.033Z,3.00
2018-09-17T14:40:17.277Z,2.80
2018-09-17T14:42:44.592Z,2.53
2018-09-17T14:45:11.879Z,2.77
2018-09-17T14:47:39.225Z,2.90
2018-09-17T14:50:06.506Z,2.70
2018-09-17T14:52:33.810Z,2.40
2018-09-17T14:55:01.125Z,2.83
2018-09-17T14:57:28.445Z,2.20
2018-09-17T14:59:55.744Z,2.20
2018-09-17T15:02:23.054Z,2.73
2018-09-17T15:04:50.358Z,2.70
2018-09-17T15:07:17.673Z,2.80
2018-09-17T15:09:44.959Z,2.73
2018-09-17T15:12:12.981Z,2.20
2018-09-17T15:14:40.255Z,2.47
2018-09-17T15:17:07.559Z,2.67
2018-09-17T15:19:34.875Z,2.90
2018-09-17T15:22:02.283Z,2.50
2018-09-17T15:24:29.585Z,3.10
2018-09-17T15:26:56.896Z,2.87
2018-09-17T15:29:24.177Z,2.40
2018-09-17T15:31:51.488Z,2.43
2018-09-17T15:34:18.906Z,2.20
2018-09-17T15:36:46.086Z,2.40
2018-09-17T15:39:14.344Z,2.53
2018-09-17T15:41:42.028Z,2.30
2018-09-17T15:44:09.342Z,2.50
2018-09-17T15:46:36.644Z,3.03
2018-09-17T15:49:03.895Z,2.73
2018-09-17T15:51:31.164Z,2.43
2018-09-17T15:53:58.546Z,2.77
2018-09-17T15:56:25.864Z,2.70
2018-09-17T15:58:53.142Z,3.17
2018-09-17T16:01:20.471Z,3.00
2018-09-17T16:03:48.489Z,2.70
2018-09-17T16:06:15.988Z,2.73
2018-09-17T16:08:43.310Z,2.60
2018-09-17T16:11:10.896Z,3.10
2018-09-17T16:13:38.196Z,4.70
2018-09-17T16:16:06.207Z,4.50
2018-09-17T16:18:33.579Z,3.20
2018-09-17T16:21:00.917Z,4.30
2018-09-17T16:23:28.893Z,4.47
2018-09-17T16:25:56.249Z,4.93
2018-09-17T16:28:23.569Z,5.10
2018-09-17T16:30:50.870Z,2.50
2018-09-17T16:33:18.425Z,2.93
2018-09-17T16:35:45.690Z,2.73
2018-09-17T16:38:12.995Z,2.77
2018-09-17T16:40:40.451Z,3.07
2018-09-17T16:43:07.701Z,2.73
2018-09-17T16:45:35.008Z,2.87
2018-09-17T16:48:02.265Z,3.17
2018-09-17T16:50:29.707Z,2.43
2018-09-17T16:52:57.128Z,2.77
2018-09-17T16:55:24.411Z,2.20
2018-09-17T16:57:51.714Z,2.90
2018-09-17T17:00:19.270Z,2.23
2018-09-17T17:02:46.526Z,2.90
2018-09-17T17:05:13.910Z,2.70
2018-09-17T17:07:41.767Z,3.23
2018-09-17T17:10:09.384Z,2.73
2018-09-17T17:12:36.819Z,3.03
2018-09-17T17:15:04.098Z,3.13
2018-09-17T17:17:31.474Z,3.20
2018-09-17T17:19:58.771Z,3.30
2018-09-17T17:22:26.090Z,3.50
2018-09-17T17:24:53.384Z,2.90
2018-09-17T17:27:21.009Z,4.40
2018-09-17T17:29:48.219Z,3.83
2018-09-17T17:32:15.538Z,3.63
2018-09-17T17:34:42.910Z,3.60
2018-09-17T17:37:16.550Z,3.00
2018-09-17T17:39:44.064Z,3.30
2018-09-17T17:42:14.086Z,3.47
2018-09-17T17:44:41.452Z,4.03
2018-09-17T17:47:08.799Z,3.03
2018-09-17T17:49:36.102Z,3.70
2018-09-17T17:52:03.791Z,3.13
2018-09-17T17:54:32.153Z,4.97
2018-09-17T17:56:59.414Z,3.83
2018-09-17T17:59:26.754Z,3.20
2018-09-17T18:01:54.125Z,5.27
2018-09-17T18:04:21.481Z,2.90
2018-09-17T18:06:50.082Z,3.30
2018-09-17T18:09:18.017Z,2.90
2018-09-17T18:11:46.190Z,4.00
2018-09-17T18:16:40.386Z,3.90
2018-09-17T18:32:07.936Z,3.70
2018-09-17T18:34:35.347Z,3.70
2018-09-17T18:37:03.147Z,3.77
2018-09-17T18:39:31.549Z,3.43
2018-09-17T18:41:58.833Z,3.80
2018-09-17T18:44:26.173Z,3.83
2018-09-17T18:46:53.536Z,4.37
2018-09-17T18:49:21.494Z,3.47
2018-09-17T18:51:53.222Z,3.20
2018-09-17T18:54:20.842Z,3.53
2018-09-17T18:56:48.770Z,3.90
2018-09-17T18:59:16.071Z,4.70
2018-09-17T19:01:43.430Z,3.47
2018-09-17T19:04:10.784Z,3.27
2018-09-17T19:06:38.787Z,3.40
2018-09-17T19:09:06.579Z,4.03
2018-09-17T19:11:34.021Z,3.50
2018-09-17T19:14:08.712Z,3.58
2018-09-17T19:16:41.367Z,4.00
2018-09-17T19:19:09.619Z,3.80
2018-09-17T19:22:41.661Z,4.03
2018-09-17T19:25:10.243Z,4.10
2018-09-17T19:27:43.699Z,4.15
2018-09-17T19:30:11.098Z,4.30
2018-09-17T19:32:38.426Z,4.42
2018-09-17T19:35:06.544Z,4.67
2018-09-17T19:37:39.733Z,4.10
2018-09-17T19:40:12.435Z,3.85
2018-09-17T19:42:40.331Z,4.07
2018-09-17T19:45:12.855Z,4.15
2018-09-17T19:47:41.023Z,3.95
2018-09-17T19:50:13.870Z,4.20
2018-09-17T19:52:41.812Z,4.30
2018-09-17T19:55:09.356Z,4.65
2018-09-17T19:57:41.972Z,4.55
2018-09-17T20:00:09.278Z,4.23
2018-09-17T20:02:36.714Z,4.17
2018-09-17T20:05:09.571Z,4.20
2018-09-17T20:07:37.094Z,4.40
2018-09-17T20:10:11.371Z,4.35
2018-09-17T20:12:38.747Z,5.95
2018-09-17T20:15:06.277Z,4.35
2018-09-17T20:17:33.617Z,4.87
2018-09-17T20:20:00.984Z,4.72
2018-09-17T20:22:28.304Z,4.33
2018-09-17T20:24:55.689Z,4.72
2018-09-17T20:27:23.564Z,4.05
2018-09-17T20:29:55.525Z,4.55
2018-09-17T20:32:22.807Z,4.05
2018-09-17T20:34:50.210Z,4.03
2018-09-17T20:37:17.573Z,4.50
2018-09-17T20:39:44.822Z,3.95
2018-09-17T20:42:12.131Z,4.42
2018-09-17T20:44:39.546Z,4.33
2018-09-17T20:47:06.885Z,4.20
2018-09-17T20:49:34.369Z,3.55
2018-09-17T20:52:01.699Z,4.30
2018-09-17T20:54:29.018Z,4.30
2018-09-17T20:56:56.948Z,4.40
2018-09-17T20:59:24.528Z,4.42
2018-09-17T21:01:51.892Z,4.28
2018-09-17T21:04:19.936Z,4.50
2018-09-17T21:06:47.409Z,5.15
2018-09-17T21:09:14.806Z,5.00
2018-09-17T21:11:42.339Z,4.62
2018-09-17T21:14:09.658Z,5.08
2018-09-17T21:16:37.670Z,5.65
2018-09-17T21:19:05.145Z,5.62
2018-09-17T21:21:32.590Z,5.25
2018-09-17T21:23:59.873Z,5.45
2018-09-17T21:26:31.381Z,5.22
2018-09-17T21:28:58.698Z,4.67
2018-09-17T21:31:26.063Z,5.10
2018-09-17T21:33:53.451Z,5.37
2018-09-17T21:36:21.707Z,5.75
2018-09-17T21:38:49.047Z,4.90
2018-09-17T21:41:16.381Z,4.72
2018-09-17T21:43:44.029Z,5.72
2018-09-17T21:46:11.734Z,5.17
2018-09-17T21:48:39.170Z,4.15
2018-09-17T21:51:06.748Z,4.45
2018-09-17T21:53:34.056Z,4.60
2018-09-17T21:56:01.454Z,4.53
2018-09-17T21:58:28.808Z,4.28
2018-09-17T22:01:02.277Z,4.75
2018-09-17T22:03:30.698Z,4.25
2018-09-17T22:05:58.522Z,4.70
2018-09-17T22:08:25.894Z,5.00
2018-09-17T22:10:53.230Z,4.45
2018-09-17T22:13:20.526Z,4.58
2018-09-17T22:15:47.845Z,4.70
2018-09-17T22:18:15.158Z,3.72
2018-09-17T22:20:42.566Z,4.50
2018-09-17T22:23:09.945Z,4.55
2018-09-17T22:25:37.265Z,4.62
2018-09-17T22:28:04.613Z,4.83
2018-09-17T22:30:31.980Z,4.60
2018-09-17T22:32:59.967Z,4.50
2018-09-17T22:35:27.391Z,4.53
2018-09-17T22:37:54.955Z,4.83
2018-09-17T22:40:22.311Z,4.47
2018-09-17T22:42:50.825Z,4.20
2018-09-17T22:45:18.334Z,3.65
2018-09-17T22:47:45.665Z,4.10
2018-09-17T22:50:13.057Z,4.58
2018-09-17T22:52:40.360Z,4.55
2018-09-17T22:55:07.675Z,5.03
2018-09-17T22:57:34.963Z,4.33
2018-09-17T23:00:02.284Z,4.28
2018-09-17T23:02:29.688Z,4.97
2018-09-17T23:04:56.991Z,5.40
2018-09-17T23:07:24.282Z,4.22
2018-09-17T23:09:51.706Z,4.55
2018-09-17T23:12:19.111Z,4.40
2018-09-17T23:14:46.441Z,4.33
2018-09-17T23:17:13.754Z,4.12
2018-09-17T23:19:41.076Z,4.85
2018-09-17T23:22:08.373Z,4.10
2018-09-17T23:24:35.673Z,4.03
2018-09-17T23:29:29.863Z,4.12
2018-09-17T23:31:57.178Z,4.60
2018-09-17T23:34:24.758Z,4.40
2018-09-17T23:36:52.422Z,4.50
2018-09-17T23:39:19.778Z,4.67
2018-09-17T23:41:47.091Z,4.78
2018-09-17T23:44:14.382Z,5.30
2018-09-17T23:46:41.701Z,4.30
2018-09-17T23:49:09.101Z,4.40
2018-09-17T23:51:36.422Z,4.40
2018-09-17T23:54:04.455Z,4.67
2018-09-17T23:56:31.823Z,3.90
2018-09-17T23:58:59.139Z,4.62
